Time;durP1;ratioP1;P1;durP2;ratioP2;P2;SDS_P1;SDS_P2;PMS_P1;PMS_P2;Temp;Humidity;BMP_temperature;BMP_pressure;BME280_temperature;BME280_humidity;BME280_pressure;Samples;Min_cycle;Max_cycle;Signal;HPM_P1;HPM_P2
2022/02/27 00:01:57;;;;;;;12.67;4.47;;;2.40;99.90;;;;;;5114224;28;20260;-63
2022/02/27 00:04:24;;;;;;;10.93;4.30;;;2.40;99.90;;;;;;5116197;28;20227;-62
2022/02/27 00:06:52;;;;;;;9.53;3.70;;;2.40;99.90;;;;;;5115886;28;20232;-63
2022/02/27 00:09:19;;;;;;;11.07;3.60;;;2.30;99.90;;;;;;5115881;28;20234;-63
2022/02/27 00:11:48;;;;;;;7.87;3.77;;;2.30;99.90;;;;;;5116001;28;20200;-63
2022/02/27 00:14:15;;;;;;;10.47;3.90;;;2.20;99.90;;;;;;5116061;28;20195;-63
2022/02/27 00:16:42;;;;;;;8.27;3.70;;;2.30;99.90;;;;;;5116050;28;20239;-62
2022/02/27 00:19:08;;;;;;;13.47;3.80;;;2.30;99.90;;;;;;5115888;28;20204;-62
2022/02/27 00:21:35;;;;;;;11.37;4.40;;;2.30;99.90;;;;;;5115793;28;20531;-62
2022/02/27 00:24:03;;;;;;;9.93;5.23;;;2.20;99.90;;;;;;5115623;28;20227;-62
2022/02/27 00:26:30;;;;;;;9.67;4.13;;;2.20;99.90;;;;;;5115546;28;20625;-62
2022/02/27 00:28:57;;;;;;;9.63;4.40;;;2.20;99.90;;;;;;5115542;28;20724;-61
2022/02/27 00:31:23;;;;;;;11.67;4.83;;;2.20;99.90;;;;;;5115464;28;20740;-62
2022/02/27 00:33:50;;;;;;;8.70;4.50;;;2.10;99.90;;;;;;5115757;28;20196;-62
2022/02/27 00:36:17;;;;;;;10.83;4.63;;;1.90;99.90;;;;;;5115359;28;20726;-61
2022/02/27 00:38:44;;;;;;;10.77;4.17;;;1.90;99.90;;;;;;5115783;28;20206;-62
2022/02/27 00:41:12;;;;;;;8.37;3.80;;;1.80;99.90;;;;;;5115345;28;20208;-61
2022/02/27 00:43:39;;;;;;;10.27;4.17;;;1.80;99.90;;;;;;5115361;28;20227;-61
2022/02/27 00:46:06;;;;;;;12.60;3.53;;;1.80;99.90;;;;;;5115205;28;20223;-62
2022/02/27 00:48:33;;;;;;;8.80;4.20;;;1.90;99.90;;;;;;5115346;28;20407;-62
2022/02/27 00:51:00;;;;;;;11.33;3.77;;;1.90;99.90;;;;;;5114987;28;20248;-62
2022/02/27 00:53:26;;;;;;;11.43;3.90;;;1.90;99.90;;;;;;5116073;28;20199;-62
2022/02/27 00:55:53;;;;;;;8.97;3.80;;;2.00;99.90;;;;;;5115184;28;20345;-61
2022/02/27 00:58:21;;;;;;;10.93;3.53;;;2.00;99.90;;;;;;5115468;28;20218;-62
2022/02/27 01:00:48;;;;;;;9.00;4.07;;;1.90;99.90;;;;;;5114900;28;20208;-60
2022/02/27 01:03:15;;;;;;;10.83;4.40;;;1.90;99.90;;;;;;5114855;28;20721;-62
2022/02/27 01:05:41;;;;;;;8.60;3.77;;;1.90;99.90;;;;;;5114747;28;20246;-61
2022/02/27 01:08:08;;;;;;;8.37;4.00;;;1.90;99.90;;;;;;5115194;28;20631;-62
2022/02/27 01:10:35;;;;;;;8.93;4.47;;;1.90;99.90;;;;;;5114805;28;20208;-62
2022/02/27 01:13:02;;;;;;;15.03;4.77;;;1.90;99.90;;;;;;5114077;28;20699;-62
2022/02/27 01:15:30;;;;;;;8.73;3.47;;;1.90;99.90;;;;;;5114593;28;20260;-62
2022/02/27 01:17:57;;;;;;;16.00;6.00;;;1.90;99.90;;;;;;5114766;28;20226;-62
2022/02/27 01:20:23;;;;;;;8.00;4.00;;;2.00;99.90;;;;;;5114727;28;20211;-62
2022/02/27 01:22:50;;;;;;;9.27;4.10;;;2.00;99.90;;;;;;5114654;28;20231;-63
2022/02/27 01:25:17;;;;;;;9.60;4.27;;;2.10;99.90;;;;;;5114498;28;20770;-62
2022/02/27 01:27:44;;;;;;;11.87;4.40;;;2.10;99.90;;;;;;5114666;28;20295;-63
2022/02/27 01:30:11;;;;;;;11.70;4.30;;;2.10;99.90;;;;;;5114814;28;20214;-62
2022/02/27 01:32:40;;;;;;;9.70;3.93;;;2.20;99.90;;;;;;5114172;27;20264;-62
2022/02/27 01:35:08;;;;;;;8.73;4.07;;;2.20;99.90;;;;;;5114492;28;20573;-62
2022/02/27 01:37:34;;;;;;;9.23;3.70;;;2.20;99.90;;;;;;5114110;28;20230;-62
2022/02/27 01:40:02;;;;;;;10.13;4.50;;;2.20;99.90;;;;;;5114576;28;20208;-62
2022/02/27 01:42:28;;;;;;;12.87;4.40;;;2.20;99.90;;;;;;5114335;28;20675;-62
2022/02/27 01:44:55;;;;;;;8.97;4.00;;;2.10;99.90;;;;;;5113918;28;20593;-62
2022/02/27 01:47:22;;;;;;;10.40;4.17;;;2.10;99.90;;;;;;5113831;28;20220;-62
2022/02/27 01:49:51;;;;;;;9.27;3.70;;;2.00;99.90;;;;;;5114135;28;20231;-62
2022/02/27 01:52:18;;;;;;;9.27;3.90;;;2.00;99.90;;;;;;5113812;28;20207;-62
2022/02/27 01:54:45;;;;;;;8.77;3.37;;;2.00;99.90;;;;;;5113842;28;20204;-61
2022/02/27 01:57:12;;;;;;;12.47;3.67;;;2.00;99.90;;;;;;5113826;28;20278;-62
2022/02/27 01:59:39;;;;;;;9.53;3.67;;;1.90;99.90;;;;;;5113818;28;20207;-61
2022/02/27 02:02:06;;;;;;;8.77;4.03;;;1.80;99.90;;;;;;5113851;28;20204;-62
2022/02/27 02:04:34;;;;;;;9.30;3.87;;;1.60;99.90;;;;;;5113763;28;20227;-62
2022/02/27 02:07:02;;;;;;;7.77;3.80;;;1.50;99.90;;;;;;5113646;28;20228;-62
2022/02/27 02:09:29;;;;;;;6.93;3.47;;;1.40;99.90;;;;;;5113732;28;20214;-62
2022/02/27 02:11:56;;;;;;;7.67;3.90;;;1.40;99.90;;;;;;5113342;28;20264;-62
2022/02/27 02:14:22;;;;;;;11.53;3.80;;;1.40;99.90;;;;;;5113441;28;20561;-62
2022/02/27 02:16:52;;;;;;;13.93;3.97;;;1.30;99.90;;;;;;5113318;28;20634;-62
2022/02/27 02:19:21;;;;;;;9.10;3.90;;;1.30;99.90;;;;;;5113570;28;20199;-62
2022/02/27 02:21:51;;;;;;;8.27;3.30;;;1.30;99.90;;;;;;5113268;28;20310;-61
2022/02/27 02:24:18;;;;;;;8.33;3.97;;;1.40;99.90;;;;;;5112971;28;20659;-62
2022/02/27 02:26:46;;;;;;;7.70;3.70;;;1.40;99.90;;;;;;5112588;28;20572;-63
2022/02/27 02:29:15;;;;;;;7.87;3.53;;;1.50;99.90;;;;;;5113595;28;20206;-63
2022/02/27 02:31:42;;;;;;;9.80;4.10;;;1.60;99.90;;;;;;5113101;28;20269;-62
2022/02/27 02:34:11;;;;;;;11.40;3.50;;;1.50;99.90;;;;;;5113356;28;20199;-62
2022/02/27 02:36:38;;;;;;;7.33;3.57;;;1.50;99.90;;;;;;5112907;28;20300;-61
2022/02/27 02:39:09;;;;;;;6.93;3.60;;;1.50;99.90;;;;;;5113087;28;20232;-62
2022/02/27 02:41:37;;;;;;;7.57;3.97;;;1.40;99.90;;;;;;5112608;28;20631;-62
2022/02/27 02:44:05;;;;;;;6.80;3.40;;;1.30;99.90;;;;;;5113046;28;20223;-62
2022/02/27 02:46:35;;;;;;;11.50;3.97;;;1.30;99.90;;;;;;5112884;28;20296;-62
2022/02/27 02:49:02;;;;;;;7.83;3.60;;;1.30;99.90;;;;;;5113049;28;20211;-63
2022/02/27 02:51:28;;;;;;;8.73;3.80;;;1.40;99.90;;;;;;5112478;28;20207;-62
2022/02/27 02:53:55;;;;;;;9.53;3.67;;;1.40;99.90;;;;;;5112724;28;20234;-62
2022/02/27 02:56:23;;;;;;;7.63;3.73;;;1.40;99.90;;;;;;5112754;28;20231;-62
2022/02/27 02:58:50;;;;;;;10.53;3.70;;;1.30;99.90;;;;;;5112980;28;20199;-63
2022/02/27 03:01:19;;;;;;;9.73;3.53;;;1.20;99.90;;;;;;5112518;28;20212;-63
2022/02/27 03:03:48;;;;;;;12.53;3.93;;;1.20;99.90;;;;;;5112835;28;20211;-63
2022/02/27 03:06:15;;;;;;;10.27;3.90;;;1.30;99.90;;;;;;5112314;28;20227;-62
2022/02/27 03:08:43;;;;;;;11.93;4.37;;;1.20;99.90;;;;;;5112809;28;20203;-63
2022/02/27 03:11:10;;;;;;;8.27;3.37;;;1.30;99.90;;;;;;5112451;28;20272;-63
2022/02/27 03:13:38;;;;;;;8.77;3.20;;;1.40;99.90;;;;;;5112653;28;20204;-63
2022/02/27 03:16:06;;;;;;;11.07;3.93;;;1.30;99.90;;;;;;5112861;28;20317;-62
2022/02/27 03:18:33;;;;;;;12.87;3.90;;;1.20;99.90;;;;;;5112497;28;20204;-62
2022/02/27 03:21:00;;;;;;;7.73;3.50;;;1.20;99.90;;;;;;5112930;28;20260;-63
2022/02/27 03:23:28;;;;;;;10.10;3.93;;;1.10;99.90;;;;;;5112504;28;20560;-63
2022/02/27 03:25:55;;;;;;;7.23;3.37;;;1.00;99.90;;;;;;5112281;28;20723;-62
2022/02/27 03:28:21;;;;;;;7.90;3.77;;;1.00;99.90;;;;;;5112633;28;20207;-62
2022/02/27 03:30:49;;;;;;;11.60;3.80;;;1.00;99.90;;;;;;5112434;28;20227;-62
2022/02/27 03:33:16;;;;;;;9.17;3.40;;;1.10;99.90;;;;;;5112222;28;20587;-61
2022/02/27 03:35:43;;;;;;;8.07;3.67;;;1.10;99.90;;;;;;5112221;28;20227;-62
2022/02/27 03:38:10;;;;;;;10.43;3.97;;;1.20;99.90;;;;;;5116763;28;20214;-62
2022/02/27 03:40:36;;;;;;;10.37;4.23;;;1.20;99.90;;;;;;5117098;28;20207;-62
2022/02/27 03:43:03;;;;;;;8.77;4.03;;;1.20;99.90;;;;;;5116729;28;20211;-63
2022/02/27 03:45:30;;;;;;;8.20;3.73;;;1.30;99.90;;;;;;5116347;28;20227;-62
2022/02/27 03:47:58;;;;;;;9.67;4.13;;;1.30;99.90;;;;;;5116202;28;20207;-63
2022/02/27 03:50:25;;;;;;;8.43;3.97;;;1.20;99.90;;;;;;5116466;28;20476;-62
2022/02/27 03:52:52;;;;;;;8.10;3.77;;;1.20;99.90;;;;;;5116173;28;20208;-63
2022/02/27 03:55:19;;;;;;;8.40;3.90;;;1.10;99.90;;;;;;5116399;28;20261;-62
2022/02/27 03:57:46;;;;;;;7.57;3.70;;;1.00;99.90;;;;;;5116318;28;20210;-63
2022/02/27 04:00:14;;;;;;;11.13;3.67;;;0.90;99.90;;;;;;5116298;28;20204;-62
2022/02/27 04:02:42;;;;;;;12.37;3.63;;;0.80;99.90;;;;;;5115832;28;20208;-62
2022/02/27 04:05:10;;;;;;;8.83;4.10;;;0.70;99.90;;;;;;5116284;28;20254;-62
2022/02/27 04:07:36;;;;;;;10.83;4.33;;;0.70;99.90;;;;;;5116172;28;20256;-63
2022/02/27 04:10:04;;;;;;;7.97;3.93;;;0.80;99.90;;;;;;5116139;28;20203;-62
2022/02/27 04:12:30;;;;;;;9.83;4.80;;;0.80;99.90;;;;;;5115689;28;20270;-61
2022/02/27 04:14:57;;;;;;;10.13;3.93;;;0.90;99.90;;;;;;5115928;28;20203;-62
2022/02/27 04:17:24;;;;;;;10.87;4.97;;;0.90;99.90;;;;;;5115697;28;20715;-62
2022/02/27 04:19:50;;;;;;;10.67;4.70;;;1.00;99.90;;;;;;5116045;28;20211;-62
2022/02/27 04:22:18;;;;;;;8.80;4.10;;;1.00;99.90;;;;;;5116020;28;20207;-61
2022/02/27 04:24:45;;;;;;;10.83;4.30;;;1.00;99.90;;;;;;5115823;28;20231;-61
2022/02/27 04:27:12;;;;;;;10.17;5.07;;;1.00;99.90;;;;;;5115811;28;20269;-62
2022/02/27 04:29:38;;;;;;;9.40;4.30;;;1.00;99.90;;;;;;5115566;28;20207;-62
2022/02/27 04:32:06;;;;;;;12.30;4.20;;;1.10;99.90;;;;;;5115543;28;20203;-62
2022/02/27 04:34:33;;;;;;;8.20;4.37;;;1.10;99.90;;;;;;5115812;28;20195;-62
2022/02/27 04:36:59;;;;;;;9.53;4.17;;;1.10;99.90;;;;;;5115503;28;20604;-62
2022/02/27 04:39:27;;;;;;;8.93;4.00;;;1.10;99.90;;;;;;5115762;28;20207;-62
2022/02/27 04:41:54;;;;;;;9.77;4.60;;;1.10;99.90;;;;;;5115321;28;20211;-62
2022/02/27 04:44:21;;;;;;;9.23;4.53;;;1.10;99.90;;;;;;5115359;28;20232;-62
2022/02/27 04:46:48;;;;;;;11.30;5.40;;;1.10;99.90;;;;;;5115326;28;20227;-62
2022/02/27 04:49:14;;;;;;;9.63;4.90;;;1.10;99.90;;;;;;5114012;28;20204;-61
2022/02/27 04:51:41;;;;;;;8.23;4.83;;;1.10;99.90;;;;;;5114912;28;20207;-63
2022/02/27 04:54:08;;;;;;;11.30;5.30;;;1.00;99.90;;;;;;5115326;28;20260;-62
2022/02/27 04:56:36;;;;;;;9.43;5.33;;;1.00;99.90;;;;;;5114966;28;20269;-61
2022/02/27 04:59:02;;;;;;;10.00;5.07;;;1.00;99.90;;;;;;5115261;28;20625;-62
2022/02/27 05:01:29;;;;;;;9.57;4.83;;;1.00;99.90;;;;;;5114894;28;20215;-63
2022/02/27 05:03:56;;;;;;;9.87;4.87;;;1.00;99.90;;;;;;5115167;28;20236;-61
2022/02/27 05:06:23;;;;;;;14.57;5.60;;;1.00;99.90;;;;;;5114784;28;20227;-61
2022/02/27 05:08:50;;;;;;;9.83;5.30;;;1.00;99.90;;;;;;5115204;28;20216;-62
2022/02/27 05:11:16;;;;;;;10.77;5.33;;;1.00;99.90;;;;;;5114343;28;20668;-61
2022/02/27 05:13:45;;;;;;;8.73;5.13;;;0.90;99.90;;;;;;5115307;28;20215;-62
2022/02/27 05:16:11;;;;;;;11.63;5.53;;;0.90;99.90;;;;;;5114375;28;20742;-62
2022/02/27 05:18:38;;;;;;;9.53;4.97;;;0.90;99.90;;;;;;5114788;28;20211;-62
2022/02/27 05:21:05;;;;;;;10.23;5.37;;;0.80;99.90;;;;;;5114685;28;20203;-62
2022/02/27 05:23:32;;;;;;;10.37;5.43;;;0.80;99.90;;;;;;5114364;28;20203;-62
2022/02/27 05:25:59;;;;;;;8.60;5.50;;;0.80;99.90;;;;;;5114345;28;20227;-63
2022/02/27 05:28:25;;;;;;;14.33;5.97;;;0.80;99.90;;;;;;5114944;28;20203;-62
2022/02/27 05:30:55;;;;;;;12.97;5.67;;;0.70;99.90;;;;;;5114887;28;20208;-62
2022/02/27 05:33:22;;;;;;;11.33;6.10;;;0.70;99.90;;;;;;5114266;28;20204;-62
2022/02/27 05:35:49;;;;;;;11.83;5.40;;;0.60;99.90;;;;;;5114305;28;20303;-63
2022/02/27 05:38:15;;;;;;;15.80;7.23;;;0.60;99.90;;;;;;5114083;28;20203;-61
2022/02/27 05:40:42;;;;;;;14.93;6.10;;;0.50;99.90;;;;;;5114315;28;20208;-62
2022/02/27 05:43:09;;;;;;;13.93;6.27;;;0.50;99.90;;;;;;5114193;28;20233;-62
2022/02/27 05:45:36;;;;;;;11.93;6.30;;;0.40;99.90;;;;;;5114252;28;20272;-62
2022/02/27 05:48:05;;;;;;;12.03;5.90;;;0.40;99.90;;;;;;5114129;28;20612;-62
2022/02/27 05:50:31;;;;;;;16.00;6.30;;;0.30;99.90;;;;;;5113993;28;20659;-61
2022/02/27 05:52:58;;;;;;;14.13;7.10;;;0.20;99.90;;;;;;5113717;28;20203;-62
2022/02/27 05:55:25;;;;;;;12.30;5.50;;;0.20;99.90;;;;;;5113731;28;20202;-62
2022/02/27 05:57:51;;;;;;;13.47;6.67;;;0.20;99.90;;;;;;5114065;28;20558;-62
2022/02/27 06:00:18;;;;;;;14.93;6.43;;;0.20;99.90;;;;;;5113685;28;20199;-62
2022/02/27 06:02:45;;;;;;;17.97;7.87;;;0.10;99.90;;;;;;5113572;28;20724;-63
2022/02/27 06:05:13;;;;;;;12.63;5.67;;;0.10;99.90;;;;;;5113724;28;20715;-61
2022/02/27 06:07:39;;;;;;;10.70;5.77;;;0.00;99.90;;;;;;5113659;28;20672;-61
2022/02/27 06:10:07;;;;;;;16.33;6.13;;;0.00;99.90;;;;;;5113981;28;20208;-60
2022/02/27 06:12:34;;;;;;;11.57;5.87;;;0.00;99.90;;;;;;5113400;28;20662;-61
2022/02/27 06:15:00;;;;;;;12.03;6.03;;;-0.10;99.90;;;;;;5113523;28;20203;-62
2022/02/27 06:17:27;;;;;;;11.27;4.97;;;-0.10;99.90;;;;;;5113235;28;20255;-64
2022/02/27 06:19:54;;;;;;;11.10;4.67;;;0.00;99.90;;;;;;5113574;28;20208;-62
2022/02/27 06:22:24;;;;;;;11.53;5.20;;;-0.10;99.90;;;;;;5113043;28;20679;-62
2022/02/27 06:24:51;;;;;;;8.93;5.17;;;-0.10;99.90;;;;;;5113568;28;20208;-62
2022/02/27 06:27:17;;;;;;;11.10;5.47;;;0.00;99.90;;;;;;5113299;28;20228;-62
2022/02/27 06:29:44;;;;;;;10.33;5.40;;;0.10;99.90;;;;;;5113131;28;20667;-63
2022/02/27 06:32:11;;;;;;;7.83;4.57;;;0.10;99.90;;;;;;5113104;28;20232;-62
2022/02/27 06:34:37;;;;;;;10.17;5.00;;;0.10;99.90;;;;;;5113074;28;20214;-63
2022/02/27 06:37:05;;;;;;;10.83;5.33;;;0.20;99.90;;;;;;5112934;28;20726;-62
2022/02/27 06:39:33;;;;;;;11.77;5.17;;;0.20;99.90;;;;;;5113480;28;20272;-62
2022/02/27 06:42:01;;;;;;;10.90;4.67;;;0.30;99.90;;;;;;5113505;28;20203;-62
2022/02/27 06:44:28;;;;;;;9.97;4.90;;;0.40;99.90;;;;;;5113454;28;20286;-62
2022/02/27 06:46:54;;;;;;;13.07;4.80;;;0.50;99.90;;;;;;5112757;28;20232;-61
2022/02/27 06:49:21;;;;;;;10.43;4.90;;;0.60;99.90;;;;;;5113069;28;20203;-62
2022/02/27 06:51:48;;;;;;;11.53;5.27;;;0.60;99.90;;;;;;5113278;28;20211;-61
2022/02/27 06:54:15;;;;;;;8.87;5.17;;;0.70;99.90;;;;;;5112820;28;20245;-60
2022/02/27 06:56:43;;;;;;;16.10;9.00;;;1.10;99.90;;;;;;5113148;28;20220;-61
2022/02/27 06:59:10;;;;;;;10.27;5.47;;;2.00;99.90;;;;;;5112949;28;20511;-62
2022/02/27 07:01:36;;;;;;;12.50;7.30;;;3.30;99.90;;;;;;5112279;28;20203;-62
2022/02/27 07:04:03;;;;;;;8.90;4.87;;;4.60;99.90;;;;;;5112461;28;20252;-61
2022/02/27 07:06:30;;;;;;;8.30;5.50;;;5.60;99.90;;;;;;5112472;28;20227;-62
2022/02/27 07:08:56;;;;;;;9.27;5.80;;;5.90;99.90;;;;;;5112792;28;20601;-62
2022/02/27 07:11:23;;;;;;;12.57;5.90;;;5.90;99.90;;;;;;5112045;28;20204;-61
2022/02/27 07:13:51;;;;;;;10.50;5.60;;;5.90;99.90;;;;;;5112409;28;20215;-61
2022/02/27 07:16:22;;;;;;;19.37;11.17;;;6.10;99.90;;;;;;5112443;28;20722;-61
2022/02/27 07:18:53;;;;;;;13.77;6.80;;;6.70;99.90;;;;;;5112667;28;20204;-62
2022/02/27 07:21:19;;;;;;;12.03;7.97;;;7.60;99.90;;;;;;5112640;28;20408;-62
2022/02/27 07:23:47;;;;;;;12.77;5.60;;;8.50;99.90;;;;;;5112196;28;20211;-62
2022/02/27 07:26:14;;;;;;;9.90;4.63;;;9.30;99.00;;;;;;5112259;28;20229;-62
2022/02/27 07:28:40;;;;;;;6.50;4.40;;;10.10;97.50;;;;;;5112450;28;20211;-61
2022/02/27 07:31:09;;;;;;;7.20;4.07;;;10.90;96.20;;;;;;5112591;28;20583;-62
2022/02/27 07:33:36;;;;;;;7.17;4.47;;;11.60;94.40;;;;;;5112564;28;20207;-61
2022/02/27 07:36:03;;;;;;;9.33;4.50;;;12.10;93.60;;;;;;5112442;28;20223;-62
2022/02/27 07:38:30;;;;;;;6.87;4.60;;;12.50;92.90;;;;;;5112352;28;20212;-61
2022/02/27 07:40:56;;;;;;;6.57;4.27;;;12.50;92.20;;;;;;5112130;28;20720;-61
2022/02/27 07:43:23;;;;;;;6.83;4.60;;;12.10;91.90;;;;;;5111843;28;20207;-64
2022/02/27 07:45:50;;;;;;;9.50;5.40;;;11.10;92.50;;;;;;5112193;28;20230;-63
2022/02/27 07:48:18;;;;;;;9.43;5.33;;;9.90;94.20;;;;;;5112414;28;20211;-62
2022/02/27 07:50:45;;;;;;;7.70;4.57;;;8.80;95.70;;;;;;5112334;28;20295;-61
2022/02/27 07:53:11;;;;;;;10.53;4.67;;;7.80;97.20;;;;;;5112015;28;20203;-62
2022/02/27 07:55:38;;;;;;;7.57;4.77;;;7.10;98.60;;;;;;5111915;28;20597;-61
2022/02/27 07:58:05;;;;;;;9.17;4.90;;;6.50;99.70;;;;;;5112200;28;20203;-61
2022/02/27 08:00:32;;;;;;;9.97;5.70;;;6.00;99.90;;;;;;5112673;28;20203;-62
2022/02/27 08:02:58;;;;;;;7.77;5.20;;;5.50;99.90;;;;;;5112397;28;20211;-62
2022/02/27 08:05:27;;;;;;;10.17;4.87;;;5.20;99.90;;;;;;5112488;28;20223;-61
2022/02/27 08:07:56;;;;;;;7.20;5.23;;;4.80;99.90;;;;;;5112281;28;20207;-62
2022/02/27 08:10:23;;;;;;;9.80;5.30;;;4.60;99.90;;;;;;5112110;28;20667;-61
2022/02/27 08:12:49;;;;;;;10.60;5.73;;;4.50;99.90;;;;;;5112038;28;20287;-62
2022/02/27 08:15:16;;;;;;;8.97;5.00;;;4.50;99.90;;;;;;5112007;28;20203;-62
2022/02/27 08:17:43;;;;;;;10.27;5.17;;;4.40;99.90;;;;;;5111777;28;20284;-62
2022/02/27 08:20:11;;;;;;;7.30;4.93;;;4.30;99.90;;;;;;5111910;28;20355;-63
2022/02/27 08:22:40;;;;;;;9.37;5.07;;;4.30;99.90;;;;;;5112816;28;20203;-61
2022/02/27 08:25:09;;;;;;;8.93;5.17;;;4.40;99.90;;;;;;5115584;28;20199;-62
2022/02/27 08:27:36;;;;;;;7.80;4.97;;;4.50;99.90;;;;;;5115592;28;20228;-62
2022/02/27 08:30:03;;;;;;;7.50;4.80;;;4.50;99.90;;;;;;5115636;28;20214;-62
2022/02/27 08:32:30;;;;;;;8.60;4.83;;;4.50;99.90;;;;;;5115508;28;20210;-63
2022/02/27 08:34:57;;;;;;;8.50;4.93;;;4.70;99.90;;;;;;5115501;28;20211;-62
2022/02/27 08:37:23;;;;;;;11.30;5.20;;;4.80;99.90;;;;;;5115446;28;20272;-62
2022/02/27 08:39:51;;;;;;;9.00;4.77;;;4.90;99.90;;;;;;5115334;28;20204;-62
2022/02/27 08:42:18;;;;;;;12.07;4.67;;;5.00;99.90;;;;;;5115351;28;20207;-62
2022/02/27 08:44:45;;;;;;;7.27;4.50;;;5.10;99.90;;;;;;5115352;28;20200;-62
2022/02/27 08:47:11;;;;;;;5.93;4.07;;;5.20;99.90;;;;;;5114767;28;20231;-61
2022/02/27 08:49:38;;;;;;;6.60;3.87;;;5.20;99.90;;;;;;5115136;28;20211;-62
2022/02/27 08:52:06;;;;;;;8.00;4.03;;;5.30;99.90;;;;;;5114835;28;20593;-64
2022/02/27 08:54:33;;;;;;;6.67;4.43;;;5.30;99.90;;;;;;5115096;28;20573;-61
2022/02/27 08:57:01;;;;;;;8.10;4.67;;;5.50;99.90;;;;;;5115270;28;20230;-62
2022/02/27 08:59:28;;;;;;;9.47;3.87;;;5.50;99.90;;;;;;5114695;28;20203;-62
2022/02/27 09:01:55;;;;;;;10.93;4.37;;;5.60;99.90;;;;;;5115015;28;20585;-62
2022/02/27 09:04:22;;;;;;;6.17;3.80;;;5.70;99.90;;;;;;5115232;28;20219;-61
2022/02/27 09:06:49;;;;;;;6.97;4.00;;;5.80;99.90;;;;;;5115143;28;20230;-63
2022/02/27 09:09:16;;;;;;;24.00;8.37;;;5.80;99.90;;;;;;5115517;28;20212;-62
2022/02/27 09:11:42;;;;;;;8.37;5.13;;;5.90;99.90;;;;;;5115010;28;20235;-62
2022/02/27 09:14:10;;;;;;;10.03;5.43;;;6.00;99.90;;;;;;5114869;28;20206;-63
2022/02/27 09:16:37;;;;;;;7.53;3.77;;;6.10;99.90;;;;;;5131815;22;20277;-67
2022/02/27 09:19:04;;;;;;;7.83;4.53;;;6.00;99.90;;;;;;5087364;28;20571;-68
2022/02/27 09:21:31;;;;;;;5.77;3.47;;;6.10;99.90;;;;;;5096190;28;20284;-68
2022/02/27 09:23:57;;;;;;;5.93;3.70;;;6.10;99.90;;;;;;5095999;28;20690;-66
2022/02/27 09:26:24;;;;;;;5.10;3.20;;;6.10;99.90;;;;;;5099985;28;20703;-67
2022/02/27 09:28:52;;;;;;;5.80;3.30;;;6.10;99.90;;;;;;5102090;28;20208;-67
2022/02/27 09:31:20;;;;;;;7.73;3.83;;;6.20;99.90;;;;;;5099689;28;20208;-67
2022/02/27 09:33:47;;;;;;;6.47;3.90;;;6.40;99.90;;;;;;5098313;28;20583;-67
2022/02/27 09:36:14;;;;;;;6.40;3.53;;;6.80;99.90;;;;;;5099042;28;20220;-68
2022/02/27 09:38:41;;;;;;;5.53;4.10;;;7.20;99.90;;;;;;5095756;28;20231;-65
2022/02/27 09:41:08;;;;;;;5.20;3.17;;;7.50;99.90;;;;;;5095525;28;20204;-64
2022/02/27 09:43:37;;;;;;;9.33;3.97;;;7.70;99.80;;;;;;5096730;28;20206;-62
2022/02/27 09:46:04;;;;;;;7.40;4.00;;;7.80;99.80;;;;;;5095432;28;20231;-61
2022/02/27 09:48:32;;;;;;;6.60;3.13;;;8.20;99.90;;;;;;5095157;28;20558;-62
2022/02/27 09:50:59;;;;;;;5.33;3.03;;;8.80;99.30;;;;;;5095913;28;20200;-63
2022/02/27 09:53:26;;;;;;;5.83;3.27;;;9.10;98.20;;;;;;5095238;28;20690;-62
2022/02/27 09:55:52;;;;;;;5.93;3.23;;;9.20;98.00;;;;;;5095263;28;20211;-58
2022/02/27 09:58:19;;;;;;;7.17;3.13;;;9.50;96.80;;;;;;5095185;28;20208;-64
2022/02/27 10:00:46;;;;;;;5.53;3.20;;;9.50;95.10;;;;;;5094973;28;20200;-63
2022/02/27 10:03:14;;;;;;;8.53;5.93;;;9.50;94.60;;;;;;5094420;28;20209;-63
2022/02/27 10:05:43;;;;;;;4.97;2.70;;;9.50;95.20;;;;;;5094830;28;20211;-63
2022/02/27 10:08:11;;;;;;;4.83;2.70;;;9.40;93.90;;;;;;5095214;28;20204;-64
2022/02/27 10:10:40;;;;;;;5.83;2.83;;;9.10;93.90;;;;;;5095193;28;20646;-62
2022/02/27 10:13:07;;;;;;;4.50;2.90;;;8.80;94.00;;;;;;5094610;28;20204;-63
2022/02/27 10:15:34;;;;;;;3.60;2.87;;;8.70;94.10;;;;;;5095452;28;20265;-63
2022/02/27 10:18:13;;;;;;;3.60;2.43;;;8.70;94.50;;;;;;5095239;28;20251;-63
2022/02/27 10:20:42;;;;;;;6.37;3.00;;;8.70;94.40;;;;;;5095005;28;20208;-63
2022/02/27 10:23:09;;;;;;;6.60;3.20;;;8.60;94.00;;;;;;5094845;28;20204;-62
2022/02/27 10:25:39;;;;;;;4.63;2.77;;;8.60;94.40;;;;;;5094733;28;20702;-65
2022/02/27 10:28:07;;;;;;;4.43;2.43;;;8.70;94.60;;;;;;5094126;28;20710;-62
2022/02/27 10:30:36;;;;;;;3.80;2.40;;;8.80;93.40;;;;;;5094844;28;20207;-63
2022/02/27 10:33:05;;;;;;;4.43;2.73;;;8.90;93.30;;;;;;5094017;28;20200;-63
2022/02/27 10:35:51;;;;;;;4.10;2.37;;;9.00;93.30;;;;;;5093916;28;20578;-62
2022/02/27 10:38:29;;;;;;;6.00;2.57;;;8.80;93.00;;;;;;5094231;28;20238;-63
2022/02/27 10:40:56;;;;;;;4.00;2.40;;;8.70;93.20;;;;;;5094042;28;20332;-63
2022/02/27 10:43:23;;;;;;;5.30;2.40;;;8.50;93.60;;;;;;5094267;28;20231;-64
2022/02/27 10:46:02;;;;;;;5.37;2.73;;;8.40;93.20;;;;;;5093203;28;20200;-64
2022/02/27 10:48:31;;;;;;;4.97;2.60;;;8.20;92.60;;;;;;5093376;28;20236;-63
2022/02/27 10:51:05;;;;;;;4.43;2.77;;;8.30;93.20;;;;;;5093840;28;20723;-63
2022/02/27 10:53:36;;;;;;;4.83;2.90;;;8.60;93.20;;;;;;5093726;28;20203;-62
2022/02/27 10:56:07;;;;;;;4.20;2.23;;;8.80;92.60;;;;;;5092748;28;20231;-63
2022/02/27 10:58:40;;;;;;;5.60;2.57;;;8.80;91.80;;;;;;5092898;28;20644;-62
2022/02/27 11:01:08;;;;;;;4.17;2.63;;;8.70;91.90;;;;;;5092376;28;20204;-63
2022/02/27 11:03:37;;;;;;;6.33;2.60;;;8.80;91.80;;;;;;5093400;28;20299;-63
2022/02/27 11:06:07;;;;;;;5.77;2.80;;;8.80;92.10;;;;;;5093608;28;20227;-63
2022/02/27 11:08:35;;;;;;;4.13;2.50;;;9.10;92.00;;;;;;5093436;28;20257;-64
2022/02/27 11:11:02;;;;;;;4.70;2.53;;;9.30;91.00;;;;;;5093003;28;20205;-62
2022/02/27 11:13:29;;;;;;;2.73;2.47;;;9.40;90.20;;;;;;5092274;28;20231;-63
2022/02/27 11:15:57;;;;;;;4.53;2.63;;;9.50;90.30;;;;;;5092166;28;20212;-64
2022/02/27 11:18:24;;;;;;;5.27;2.50;;;9.50;90.30;;;;;;5092845;28;20200;-62
2022/02/27 11:20:51;;;;;;;4.30;2.43;;;9.60;90.50;;;;;;5092602;28;20621;-63
2022/02/27 11:23:19;;;;;;;3.67;2.50;;;9.80;89.50;;;;;;5092536;28;20208;-63
2022/02/27 11:25:46;;;;;;;3.77;2.47;;;9.70;89.60;;;;;;5092612;28;20208;-63
2022/02/27 11:28:16;;;;;;;4.10;3.13;;;9.40;88.70;;;;;;5092873;28;20699;-62
2022/02/27 11:30:47;;;;;;;5.87;2.73;;;9.10;90.00;;;;;;5092527;28;20197;-64
2022/02/27 11:33:15;;;;;;;4.43;2.87;;;9.10;89.50;;;;;;5092216;28;20211;-66
2022/02/27 11:35:44;;;;;;;10.10;7.13;;;8.90;90.10;;;;;;5092221;28;20204;-64
2022/02/27 11:38:13;;;;;;;3.57;2.23;;;8.80;90.80;;;;;;5092501;28;20269;-63
2022/02/27 11:40:47;;;;;;;5.47;2.43;;;8.90;90.50;;;;;;5092130;28;20668;-64
2022/02/27 11:43:36;;;;;;;4.03;2.50;;;9.10;90.90;;;;;;5092347;28;20620;-63
2022/02/27 11:46:03;;;;;;;4.30;2.70;;;9.10;90.70;;;;;;5092632;28;20255;-64
2022/02/27 11:48:56;;;;;;;3.97;2.77;;;9.20;90.70;;;;;;5091912;28;20269;-64
2022/02/27 11:51:43;;;;;;;5.00;2.60;;;9.20;90.20;;;;;;5092053;28;20299;-63
2022/02/27 11:54:11;;;;;;;4.63;2.50;;;9.20;89.70;;;;;;5092094;28;20624;-63
2022/02/27 11:56:40;;;;;;;3.73;2.67;;;9.10;88.60;;;;;;5092207;28;20246;-63
2022/02/27 11:59:09;;;;;;;3.73;2.43;;;9.20;89.80;;;;;;5095997;28;20204;-64
2022/02/27 12:01:37;;;;;;;4.47;2.43;;;9.30;88.40;;;;;;5095869;28;20671;-64
2022/02/27 12:04:23;;;;;;;3.37;2.30;;;9.30;89.00;;;;;;5095892;28;20208;-64
2022/02/27 12:07:05;;;;;;;4.13;2.80;;;9.30;88.50;;;;;;5096349;28;20224;-64
2022/02/27 12:10:03;;;;;;;3.83;2.53;;;9.30;88.30;;;;;;5096475;28;20291;-63
2022/02/27 12:12:57;;;;;;;4.27;2.20;;;9.20;87.00;;;;;;5040017;28;20265;-62
2022/02/27 12:15:30;;;;;;;5.53;2.50;;;9.10;87.40;;;;;;5085515;28;20208;-64
2022/02/27 12:17:59;;;;;;;5.67;2.60;;;9.20;87.50;;;;;;5095598;28;20236;-62
2022/02/27 12:20:51;;;;;;;5.13;2.20;;;9.30;87.90;;;;;;5095753;28;20208;-63
2022/02/27 12:23:43;;;;;;;4.53;2.87;;;9.40;86.30;;;;;;5095825;28;20215;-63
2022/02/27 12:26:12;;;;;;;5.33;2.50;;;9.50;87.00;;;;;;5095662;28;20628;-63
2022/02/27 12:28:57;;;;;;;4.57;2.70;;;9.50;85.80;;;;;;5095686;28;20228;-64
2022/02/27 12:31:27;;;;;;;3.63;2.13;;;9.50;84.70;;;;;;5095713;28;20211;-62
2022/02/27 12:33:56;;;;;;;3.67;2.20;;;9.40;84.20;;;;;;5096185;28;20212;-63
2022/02/27 12:36:24;;;;;;;3.57;2.40;;;9.40;85.40;;;;;;5095369;28;20751;-63
2022/02/27 12:38:55;;;;;;;4.70;2.30;;;9.50;86.30;;;;;;5095367;28;20196;-62
2022/02/27 12:41:22;;;;;;;4.27;2.17;;;9.60;84.30;;;;;;5095552;28;20402;-63
2022/02/27 12:43:49;;;;;;;3.23;2.40;;;9.60;83.20;;;;;;5095285;28;20265;-62
2022/02/27 12:46:15;;;;;;;4.43;2.30;;;9.60;83.60;;;;;;5095481;28;20738;-63
2022/02/27 12:51:32;;;;;;;3.33;2.20;;;9.50;81.10;;;;;;5095311;28;20208;-62
2022/02/27 12:53:59;;;;;;;3.23;2.50;;;9.50;81.50;;;;;;5094826;28;20215;-63
2022/02/27 12:56:28;;;;;;;3.10;2.30;;;9.50;82.30;;;;;;5095244;28;20251;-63
2022/02/27 12:58:55;;;;;;;3.87;2.50;;;9.50;82.00;;;;;;5095004;28;20204;-63
2022/02/27 13:01:28;;;;;;;5.17;2.60;;;9.50;81.90;;;;;;5095068;28;20205;-63